createdAt,value
2022-08-09T00:02:30.973Z,101194.72
2022-08-09T00:07:44.498Z,101202.72
2022-08-09T00:12:52.542Z,101204.44
2022-08-09T00:18:09.300Z,101198.56
2022-08-09T00:23:55.605Z,101202.00
2022-08-09T00:28:38.604Z,101201.25
2022-08-09T00:33:50.836Z,101202.66
2022-08-09T00:38:54.537Z,101203.19
2022-08-09T00:44:16.063Z,101207.19
2022-08-09T00:49:21.441Z,101198.66
2022-08-09T00:54:35.006Z,101208.34
2022-08-09T00:59:41.082Z,101199.63
2022-08-09T01:04:53.607Z,101205.13
2022-08-09T01:09:59.823Z,101197.78
2022-08-09T01:15:05.995Z,101190.66
2022-08-09T01:20:15.368Z,101197.56
2022-08-09T01:25:26.440Z,101202.78
2022-08-09T01:30:35.428Z,101205.03
2022-08-09T01:35:57.834Z,101202.94
2022-08-09T01:41:05.653Z,101203.66
2022-08-09T01:46:10.615Z,101210.53
2022-08-09T01:51:22.579Z,101208.94
2022-08-09T01:56:26.626Z,101209.31
2022-08-09T02:02:00.184Z,101207.81
2022-08-09T02:07:15.386Z,101210.03
2022-08-09T02:12:32.845Z,101220.03
2022-08-09T02:18:01.303Z,101228.75
2022-08-09T02:23:02.527Z,101232.81
2022-08-09T02:28:09.734Z,101241.47
2022-08-09T02:33:17.036Z,101240.75
2022-08-09T02:38:28.564Z,101238.09
2022-08-09T02:43:47.733Z,101235.59
2022-08-09T02:48:57.897Z,101237.25
2022-08-09T02:54:01.638Z,101239.63
2022-08-09T02:59:06.092Z,101249.91
2022-08-09T03:04:17.390Z,101246.56
2022-08-09T03:09:22.488Z,101244.75
2022-08-09T03:14:28.364Z,101242.44
2022-08-09T03:19:57.652Z,101250.72
2022-08-09T03:25:06.199Z,101249.69
2022-08-09T03:30:29.364Z,101256.31
2022-08-09T03:35:44.436Z,101264.13
2022-08-09T03:40:59.694Z,101273.13
2022-08-09T03:46:13.592Z,101270.50
2022-08-09T03:51:57.122Z,101279.78
2022-08-09T03:56:47.245Z,101269.97
2022-08-09T04:01:55.600Z,101273.53
2022-08-09T04:06:59.626Z,101273.84
2022-08-09T04:12:12.083Z,101277.59
2022-08-09T04:17:14.967Z,101278.09
2022-08-09T04:22:19.800Z,101286.78
2022-08-09T04:27:24.302Z,101291.50
2022-08-09T04:32:33.649Z,101289.94
2022-08-09T04:37:45.102Z,101304.78
2022-08-09T04:42:49.006Z,101305.13
2022-08-09T04:48:01.132Z,101302.41
2022-08-09T04:53:11.501Z,101302.66
2022-08-09T04:58:16.571Z,101314.13
2022-08-09T05:03:40.820Z,101328.84
2022-08-09T05:08:44.019Z,101333.00
2022-08-09T05:13:50.890Z,101347.25
2022-08-09T05:18:59.978Z,101337.50
2022-08-09T05:24:06.699Z,101337.00
2022-08-09T05:29:17.397Z,101346.69
2022-08-09T05:34:20.647Z,101364.97
2022-08-09T05:39:28.999Z,101358.88
2022-08-09T05:44:34.592Z,101359.47
2022-08-09T05:50:23.280Z,101363.13
2022-08-09T05:55:03.219Z,101364.59
2022-08-09T06:00:11.292Z,101372.44
2022-08-09T06:05:16.884Z,101371.59
2022-08-09T06:10:21.109Z,101374.94
2022-08-09T06:15:25.065Z,101377.22
2022-08-09T06:20:30.268Z,101378.13
2022-08-09T06:25:34.591Z,101382.75
2022-08-09T06:30:37.904Z,101391.75
2022-08-09T06:35:56.888Z,101388.94
2022-08-09T06:41:01.988Z,101392.34
2022-08-09T06:46:11.112Z,101383.28
2022-08-09T06:51:29.351Z,101399.53
2022-08-09T06:56:35.023Z,101392.63
2022-08-09T07:01:57.973Z,101393.53
2022-08-09T07:07:05.011Z,101395.41
2022-08-09T07:12:17.494Z,101409.09
2022-08-09T07:17:21.453Z,101406.94
2022-08-09T07:22:34.281Z,101399.06
2022-08-09T07:27:42.606Z,101402.75
2022-08-09T07:32:55.824Z,101407.81
2022-08-09T07:37:59.507Z,101411.78
2022-08-09T07:43:04.153Z,101401.66
2022-08-09T07:48:29.496Z,101396.59
2022-08-09T07:53:36.564Z,101398.16
2022-08-09T07:58:59.802Z,101399.44
2022-08-09T08:04:02.678Z,101398.25
2022-08-09T08:09:18.182Z,101392.44
2022-08-09T08:14:29.594Z,101395.53
2022-08-09T08:19:33.044Z,101396.72
2022-08-09T08:24:40.562Z,101386.78
2022-08-09T08:29:49.942Z,101395.44
2022-08-09T08:34:55.433Z,101387.97
2022-08-09T08:40:01.913Z,101394.00
2022-08-09T08:45:13.355Z,101389.13
2022-08-09T08:50:18.164Z,101397.75
2022-08-09T08:55:23.327Z,101392.25
2022-08-09T09:00:30.396Z,101392.88
2022-08-09T09:06:00.835Z,101390.34
2022-08-09T09:11:02.489Z,101390.53
2022-08-09T09:16:07.424Z,101385.13
2022-08-09T09:21:10.772Z,101385.53
2022-08-09T09:26:13.655Z,101381.53
2022-08-09T09:32:03.570Z,101385.09
2022-08-09T09:36:42.253Z,101386.75
2022-08-09T09:41:56.533Z,101377.09
2022-08-09T09:47:07.793Z,101374.22
2022-08-09T09:52:16.505Z,101373.97
2022-08-09T09:58:01.711Z,101371.50
2022-08-09T10:02:58.754Z,101375.97
2022-08-09T10:08:25.906Z,101368.25
2022-08-09T10:13:45.282Z,101368.50
2022-08-09T10:18:54.489Z,101364.34
2022-08-09T10:24:01.350Z,101349.78
2022-08-09T10:29:20.967Z,101350.78
2022-08-09T10:34:33.979Z,101348.94
2022-08-09T10:39:40.811Z,101349.78
2022-08-09T10:44:55.394Z,101351.25
2022-08-09T10:50:06.989Z,101343.78
2022-08-09T10:55:23.841Z,101345.63
2022-08-09T11:00:41.670Z,101334.44
2022-08-09T11:06:19.499Z,101337.75
2022-08-09T11:11:23.138Z,101335.16
2022-08-09T11:16:37.358Z,101340.09
2022-08-09T11:22:16.689Z,101333.25
2022-08-09T11:28:02.872Z,101324.63
2022-08-09T11:32:55.228Z,101324.41
2022-08-09T11:38:15.951Z,101317.47
2022-08-09T11:43:39.862Z,101319.19
2022-08-09T11:48:47.922Z,101320.41
2022-08-09T11:54:13.680Z,101314.38
2022-08-09T11:59:30.456Z,101312.56
2022-08-09T12:04:38.124Z,101317.63
2022-08-09T12:09:50.735Z,101316.75
2022-08-09T12:15:07.813Z,101307.53
2022-08-09T12:20:16.238Z,101311.84
2022-08-09T12:25:36.089Z,101311.94
2022-08-09T12:30:40.721Z,101310.84
2022-08-09T12:35:43.782Z,101313.16
2022-08-09T12:40:51.863Z,101313.53
2022-08-09T12:45:59.767Z,101306.00
2022-08-09T12:51:04.454Z,101299.03
2022-08-09T12:56:39.277Z,101291.91
2022-08-09T13:01:34.466Z,101298.03
2022-08-09T13:06:42.062Z,101289.47
2022-08-09T13:11:47.573Z,101295.59
2022-08-09T13:16:52.034Z,101285.00
2022-08-09T13:22:37.826Z,101282.53
2022-08-09T13:27:40.128Z,101265.41
2022-08-09T13:32:58.170Z,101275.94
2022-08-09T13:38:02.492Z,101284.31
2022-08-09T13:43:09.562Z,101280.63
2022-08-09T13:48:14.711Z,101289.44
2022-08-09T13:53:18.379Z,101287.59
2022-08-09T13:58:22.749Z,101286.63
2022-08-09T14:04:01.936Z,101286.63
2022-08-09T14:08:50.463Z,101284.75
2022-08-09T14:14:22.319Z,101285.53
2022-08-09T14:19:17.613Z,101289.09
2022-08-09T14:24:31.952Z,101289.94
2022-08-09T14:30:35.159Z,101293.72
2022-08-09T14:34:59.740Z,101279.19
2022-08-09T14:40:02.556Z,101274.84
2022-08-09T14:46:58.475Z,101273.19
2022-08-09T14:50:34.218Z,101266.97
2022-08-09T14:55:37.224Z,101272.50
2022-08-09T15:00:48.558Z,101268.44
2022-08-09T15:05:59.795Z,101266.72
2022-08-09T15:11:07.397Z,101263.16
2022-08-09T15:16:12.230Z,101259.72
2022-08-09T15:21:55.588Z,101249.63
2022-08-09T15:26:37.767Z,101254.91
2022-08-09T15:31:50.737Z,101249.22
2022-08-09T15:36:58.218Z,101250.69
2022-08-09T15:42:01.224Z,101254.25
2022-08-09T15:47:05.477Z,101246.56
2022-08-09T15:52:09.091Z,101249.88
2022-08-09T15:57:14.603Z,101243.34
2022-08-09T16:02:37.644Z,101240.84
2022-08-09T16:07:46.037Z,101251.47
2022-08-09T16:12:53.493Z,101256.28
2022-08-09T16:17:58.737Z,101249.47
2022-08-09T16:23:01.601Z,101237.94
2022-08-09T16:28:05.279Z,101243.06
2022-08-09T16:33:09.398Z,101240.34
2022-08-09T16:38:12.185Z,101236.66
2022-08-09T16:43:14.983Z,101236.13
2022-08-09T16:48:43.283Z,101234.84
2022-08-09T16:54:22.401Z,101225.59
2022-08-09T16:59:10.574Z,101233.59
2022-08-09T17:04:26.058Z,101231.47
2022-08-09T17:09:45.980Z,101242.28
2022-08-09T17:14:54.876Z,101233.78
2022-08-09T17:20:33.111Z,101232.63
2022-08-09T17:25:25.189Z,101231.50
2022-08-09T17:30:33.953Z,101238.50
2022-08-09T17:35:41.110Z,101237.38
2022-08-09T17:40:47.491Z,101239.00
2022-08-09T17:46:03.863Z,101240.84
2022-08-09T17:51:18.379Z,101249.97
2022-08-09T17:56:27.692Z,101246.56
2022-08-09T18:02:06.823Z,101254.53
2022-08-09T18:06:55.832Z,101245.84
2022-08-09T18:12:14.802Z,101247.56
2022-08-09T18:17:27.455Z,101251.84
2022-08-09T18:22:51.244Z,101254.84
2022-08-09T18:28:04.389Z,101259.25
2022-08-09T18:33:13.430Z,101262.34
2022-08-09T18:38:19.819Z,101268.63
2022-08-09T18:43:22.700Z,101267.63
2022-08-09T18:48:30.266Z,101263.94
2022-08-09T18:53:59.714Z,101274.69
2022-08-09T18:59:01.099Z,101282.63
2022-08-09T19:04:08.410Z,101295.97
2022-08-09T19:09:33.995Z,101311.03
2022-08-09T19:14:36.742Z,101309.81
2022-08-09T19:19:48.675Z,101312.47
2022-08-09T19:25:09.779Z,101319.34
2022-08-09T19:30:22.690Z,101306.25
2022-08-09T19:35:58.143Z,101311.69
2022-08-09T19:40:57.556Z,101316.94
2022-08-09T19:46:04.188Z,101316.94
2022-08-09T19:51:07.510Z,101320.78
2022-08-09T19:56:15.626Z,101325.63
2022-08-09T20:01:18.689Z,101326.34
2022-08-09T20:06:29.862Z,101327.06
2022-08-09T20:11:45.143Z,101333.34
2022-08-09T20:16:55.160Z,101334.75
2022-08-09T20:22:00.602Z,101339.84
2022-08-09T20:27:08.265Z,101337.25
2022-08-09T20:32:30.749Z,101333.81
2022-08-09T20:37:37.304Z,101343.44
2022-08-09T20:43:12.140Z,101328.56
2022-08-09T20:48:22.131Z,101326.00
2022-08-09T20:53:36.347Z,101320.66
2022-08-09T20:58:43.366Z,101329.91
2022-08-09T21:04:08.172Z,101337.16
2022-08-09T21:09:11.836Z,101344.94
2022-08-09T21:14:18.325Z,101341.66
2022-08-09T21:20:16.104Z,101343.34
2022-08-09T21:24:58.867Z,101347.56
2022-08-09T21:30:03.434Z,101357.41
2022-08-09T21:35:06.960Z,101349.53
2022-08-09T21:40:10.751Z,101353.63
2022-08-09T21:45:17.602Z,101342.44
2022-08-09T21:50:36.116Z,101345.25
2022-08-09T21:55:46.407Z,101342.75
2022-08-09T22:00:50.723Z,101352.56
2022-08-09T22:05:55.500Z,101353.44
2022-08-09T22:12:05.394Z,101358.72
2022-08-09T22:16:24.915Z,101353.84
2022-08-09T22:21:49.753Z,101359.84
2022-08-09T22:26:52.292Z,101353.84
2022-08-09T22:31:57.879Z,101355.47
2022-08-09T22:37:00.965Z,101359.56
2022-08-09T22:42:16.113Z,101366.97
2022-08-09T22:48:11.990Z,101374.66
2022-08-09T22:52:49.143Z,101371.19
2022-08-09T22:57:59.729Z,101371.47
2022-08-09T23:03:04.697Z,101375.19
2022-08-09T23:08:33.382Z,101369.16
2022-08-09T23:13:37.061Z,101369.66
2022-08-09T23:18:41.178Z,101364.75
2022-08-09T23:23:43.979Z,101369.31
2022-08-09T23:29:07.149Z,101366.88
2022-08-09T23:34:11.313Z,101358.28
2022-08-09T23:39:14.086Z,101360.25
2022-08-09T23:44:16.909Z,101363.38
2022-08-09T23:49:24.711Z,101361.53
2022-08-09T23:54:27.785Z,101349.84
2022-08-09T23:59:51.254Z,101355.34
